Time;durP1;ratioP1;P1;durP2;ratioP2;P2;SDS_P1;SDS_P2;PMS_P1;PMS_P2;Temp;Humidity;BMP_temperature;BMP_pressure;BME280_temperature;BME280_humidity;BME280_pressure;Samples;Min_cycle;Max_cycle;Signal;HPM_P1;HPM_P2
2023/10/12 00:01:57;;;;;;;17.88;10.40;;;11.70;99.90;;;;;;5085477;28;20048;-74
2023/10/12 00:04:26;;;;;;;16.38;10.73;;;11.70;99.90;;;;;;5093857;28;20043;-74
2023/10/12 00:06:53;;;;;;;17.67;10.73;;;11.70;99.90;;;;;;5090479;28;20139;-74
2023/10/12 00:09:25;;;;;;;15.98;11.13;;;11.60;99.90;;;;;;5096626;28;20075;-74
2023/10/12 00:11:57;;;;;;;15.85;10.93;;;11.70;99.90;;;;;;5084539;28;20048;-74
2023/10/12 00:14:32;;;;;;;13.98;10.13;;;11.70;99.90;;;;;;5083311;28;20398;-75
2023/10/12 00:17:01;;;;;;;15.68;10.65;;;11.70;99.90;;;;;;5083523;28;20435;-76
2023/10/12 00:19:29;;;;;;;22.23;11.63;;;11.60;99.90;;;;;;5084003;28;20564;-73
2023/10/12 00:22:00;;;;;;;20.50;11.68;;;11.60;99.90;;;;;;5073811;28;20059;-74
2023/10/12 00:24:27;;;;;;;17.85;10.77;;;11.60;99.90;;;;;;5086090;28;20044;-74
2023/10/12 00:26:58;;;;;;;17.20;10.90;;;11.50;99.90;;;;;;5086215;28;20040;-75
2023/10/12 00:29:25;;;;;;;14.55;10.20;;;11.40;99.90;;;;;;5086566;28;20122;-76
2023/10/12 00:31:57;;;;;;;14.40;10.48;;;11.50;99.90;;;;;;5074802;28;20044;-76
2023/10/12 00:34:27;;;;;;;13.20;10.10;;;11.50;99.90;;;;;;5091008;28;20060;-75
2023/10/12 00:36:57;;;;;;;16.83;10.57;;;11.50;99.90;;;;;;5079434;28;20082;-75
2023/10/12 00:39:35;;;;;;;14.02;9.48;;;11.40;99.90;;;;;;5075105;28;20075;-75
2023/10/12 00:42:03;;;;;;;16.40;9.93;;;11.40;99.90;;;;;;5087371;28;20119;-75
2023/10/12 00:44:34;;;;;;;15.90;10.32;;;11.30;99.90;;;;;;5074658;28;20040;-75
2023/10/12 00:47:12;;;;;;;13.50;9.38;;;11.30;99.90;;;;;;5087017;28;20040;-76
2023/10/12 00:49:48;;;;;;;14.90;9.50;;;11.30;99.90;;;;;;5073471;28;20071;-74
2023/10/12 00:52:25;;;;;;;13.13;8.50;;;11.30;99.90;;;;;;5085945;28;20048;-76
2023/10/12 00:54:58;;;;;;;14.48;8.50;;;11.30;99.90;;;;;;5092507;28;20051;-74
2023/10/12 00:57:26;;;;;;;17.45;8.88;;;11.30;99.90;;;;;;5106503;28;20040;-74
2023/10/12 00:59:53;;;;;;;12.73;8.43;;;11.30;99.90;;;;;;5086028;28;20492;-74
2023/10/12 01:02:24;;;;;;;17.88;11.07;;;11.20;99.90;;;;;;5075509;28;20036;-74
2023/10/12 01:04:54;;;;;;;16.65;10.75;;;11.30;99.90;;;;;;5086183;28;20416;-74
2023/10/12 01:07:25;;;;;;;14.13;8.73;;;11.30;99.90;;;;;;5087400;28;20060;-74
2023/10/12 01:10:03;;;;;;;14.38;8.77;;;11.20;99.90;;;;;;5084898;28;20540;-75
2023/10/12 01:12:31;;;;;;;15.57;9.52;;;11.10;99.90;;;;;;5087955;28;20133;-74
2023/10/12 01:15:04;;;;;;;13.10;8.27;;;11.00;99.90;;;;;;5074451;28;20266;-74
2023/10/12 01:17:35;;;;;;;14.57;8.48;;;11.00;99.90;;;;;;5086090;28;20071;-75
2023/10/12 01:20:11;;;;;;;11.43;7.60;;;10.90;99.90;;;;;;5085188;28;20098;-75
2023/10/12 01:22:41;;;;;;;13.20;7.18;;;10.90;99.90;;;;;;5074318;28;20060;-73
2023/10/12 01:25:19;;;;;;;11.15;7.55;;;11.00;99.90;;;;;;5091424;28;20032;-75
2023/10/12 01:27:47;;;;;;;12.55;7.70;;;11.00;99.90;;;;;;5092498;28;20047;-74
2023/10/12 01:30:21;;;;;;;12.38;7.20;;;11.00;99.90;;;;;;5089071;28;20403;-74
2023/10/12 01:32:53;;;;;;;12.63;7.38;;;10.90;99.90;;;;;;5075593;28;20048;-74
2023/10/12 01:35:32;;;;;;;11.05;7.32;;;10.90;99.90;;;;;;5090923;28;20451;-76
2023/10/12 01:38:01;;;;;;;11.80;8.07;;;10.90;99.90;;;;;;5072775;28;20530;-74
2023/10/12 01:40:42;;;;;;;14.88;8.13;;;10.80;99.90;;;;;;5081989;28;20059;-74
2023/10/12 01:43:12;;;;;;;12.55;8.93;;;10.80;99.90;;;;;;5110118;28;20056;-76
2023/10/12 01:45:42;;;;;;;14.82;8.77;;;10.60;99.90;;;;;;5122089;27;20043;-74
2023/10/12 01:48:12;;;;;;;12.90;8.93;;;10.60;99.90;;;;;;5084538;28;20040;-75
2023/10/12 01:50:39;;;;;;;16.50;9.40;;;10.50;99.90;;;;;;5073645;28;20140;-75
2023/10/12 01:53:22;;;;;;;14.05;9.05;;;10.50;99.90;;;;;;5072946;28;20056;-75
2023/10/12 01:55:52;;;;;;;12.48;8.05;;;10.60;99.90;;;;;;5086954;28;22051;-76
2023/10/12 01:58:20;;;;;;;12.18;8.10;;;10.70;99.90;;;;;;5097959;28;20067;-74
2023/10/12 02:00:51;;;;;;;12.27;8.38;;;10.70;99.90;;;;;;5076752;28;20041;-75
2023/10/12 02:03:26;;;;;;;13.30;8.77;;;10.70;99.90;;;;;;5074788;28;20454;-74
2023/10/12 02:05:59;;;;;;;11.37;7.90;;;10.70;99.90;;;;;;5085430;28;20545;-75
2023/10/12 02:08:35;;;;;;;12.60;7.78;;;10.70;99.90;;;;;;5084548;28;20090;-74
2023/10/12 02:11:10;;;;;;;14.20;8.30;;;10.70;99.90;;;;;;5089920;28;20063;-75
2023/10/12 02:13:40;;;;;;;13.27;8.25;;;10.60;99.90;;;;;;5091018;28;20059;-75
2023/10/12 02:16:12;;;;;;;12.27;8.50;;;10.50;99.90;;;;;;5097649;28;20029;-74
2023/10/12 02:18:39;;;;;;;14.65;8.77;;;10.40;99.90;;;;;;5094220;28;20032;-75
2023/10/12 02:21:11;;;;;;;16.20;8.32;;;10.40;99.90;;;;;;5094700;28;20056;-74
2023/10/12 02:23:54;;;;;;;11.80;8.18;;;10.40;99.90;;;;;;5075830;28;20488;-74
2023/10/12 02:26:34;;;;;;;13.07;9.00;;;10.40;99.90;;;;;;5085173;28;20040;-75
2023/10/12 02:29:11;;;;;;;13.48;8.98;;;10.50;99.90;;;;;;5089814;28;20126;-75
2023/10/12 02:31:45;;;;;;;14.27;8.38;;;10.50;99.90;;;;;;5097478;28;20068;-74
2023/10/12 02:34:16;;;;;;;12.77;7.68;;;10.50;99.90;;;;;;5100524;28;20055;-75
2023/10/12 02:36:59;;;;;;;12.13;6.95;;;10.50;99.90;;;;;;5079747;28;20511;-74
2023/10/12 02:39:28;;;;;;;12.82;8.05;;;10.40;99.90;;;;;;5072286;28;20139;-75
2023/10/12 02:42:10;;;;;;;14.45;7.95;;;10.50;99.90;;;;;;5085952;28;20047;-75
2023/10/12 02:44:42;;;;;;;15.07;8.40;;;10.50;99.90;;;;;;5071659;28;20037;-74
2023/10/12 02:47:17;;;;;;;14.00;8.75;;;10.50;99.90;;;;;;5072675;28;20045;-74
2023/10/12 02:49:46;;;;;;;12.43;8.02;;;10.50;99.90;;;;;;5085006;28;20064;-75
2023/10/12 02:52:14;;;;;;;12.68;8.07;;;10.50;99.90;;;;;;5082627;28;20079;-73
2023/10/12 02:54:49;;;;;;;10.13;7.53;;;10.40;99.90;;;;;;5097294;28;20101;-75
2023/10/12 02:57:21;;;;;;;13.68;7.68;;;10.50;99.90;;;;;;5086697;28;20035;-75
2023/10/12 02:59:56;;;;;;;10.98;7.35;;;10.40;99.90;;;;;;5103551;28;20054;-74
2023/10/12 03:02:32;;;;;;;10.20;7.43;;;10.20;99.90;;;;;;5099521;28;20047;-75
2023/10/12 03:05:02;;;;;;;15.77;7.88;;;10.10;99.90;;;;;;5109284;28;20032;-75
2023/10/12 03:07:29;;;;;;;14.48;7.18;;;10.30;99.90;;;;;;5118779;28;20052;-75
2023/10/12 03:09:59;;;;;;;10.35;7.13;;;10.30;99.90;;;;;;5098588;28;20064;-77
2023/10/12 03:12:34;;;;;;;13.25;7.70;;;10.20;99.90;;;;;;5099048;28;20056;-76
2023/10/12 03:15:11;;;;;;;11.80;6.93;;;10.10;99.90;;;;;;5107739;28;20051;-75
2023/10/12 03:17:42;;;;;;;12.10;7.60;;;10.10;99.90;;;;;;5096997;28;20036;-75
2023/10/12 03:20:21;;;;;;;13.95;7.63;;;10.20;99.90;;;;;;5098170;28;20100;-75
2023/10/12 03:22:52;;;;;;;12.63;6.97;;;10.20;99.90;;;;;;5091979;28;20047;-75
2023/10/12 03:25:37;;;;;;;15.88;7.47;;;10.10;99.90;;;;;;5107833;28;20074;-74
2023/10/12 03:28:28;;;;;;;12.95;8.18;;;10.10;99.90;;;;;;5106035;28;20053;-77
2023/10/12 03:30:54;;;;;;;12.98;7.65;;;10.10;99.90;;;;;;5099524;28;20044;-77
2023/10/12 03:33:34;;;;;;;19.77;10.45;;;10.10;99.90;;;;;;5086393;28;20055;-74
2023/10/12 03:36:13;;;;;;;12.93;8.98;;;10.00;99.90;;;;;;5085385;28;20041;-75
2023/10/12 03:38:43;;;;;;;14.68;9.25;;;9.90;99.90;;;;;;5086241;28;20396;-75
2023/10/12 03:44:05;;;;;;;;;;;9.80;99.90;;;;;;5085739;28;20093;-76
2023/10/12 03:46:33;;;;;;;20.15;16.33;;;9.90;99.90;;;;;;5083811;28;19924;-73
2023/10/12 03:49:09;;;;;;;17.08;13.35;;;10.00;99.90;;;;;;5088231;28;20044;-75
2023/10/12 03:51:41;;;;;;;14.82;9.95;;;10.00;99.90;;;;;;5098476;28;20228;-76
2023/10/12 03:54:18;;;;;;;15.30;9.35;;;10.00;99.90;;;;;;5102821;28;20024;-74
2023/10/12 03:56:48;;;;;;;13.38;9.45;;;10.00;99.90;;;;;;5108785;28;20051;-74
2023/10/12 03:59:19;;;;;;;12.77;8.35;;;9.90;99.90;;;;;;5108002;28;20036;-74
2023/10/12 04:01:47;;;;;;;14.93;8.80;;;9.90;99.90;;;;;;5111851;28;20034;-74
2023/10/12 04:04:21;;;;;;;14.73;7.25;;;9.90;99.90;;;;;;5107178;28;20044;-74
2023/10/12 04:07:05;;;;;;;12.55;8.60;;;9.80;99.90;;;;;;5101860;28;20050;-74
2023/10/12 04:09:42;;;;;;;15.73;9.10;;;9.80;99.90;;;;;;5108188;28;20040;-76
2023/10/12 04:12:35;;;;;;;13.60;8.88;;;9.90;99.90;;;;;;5112719;28;20215;-76
2023/10/12 04:15:26;;;;;;;15.70;9.75;;;9.90;99.90;;;;;;5107817;28;20044;-75
2023/10/12 04:17:53;;;;;;;13.90;8.77;;;9.90;99.90;;;;;;5110754;28;20041;-75
2023/10/12 04:20:23;;;;;;;16.73;8.70;;;9.90;99.90;;;;;;5101004;28;20146;-76
2023/10/12 04:23:43;;;;;;;15.10;8.23;;;9.90;99.90;;;;;;5111577;28;20060;-75
2023/10/12 04:26:27;;;;;;;11.90;7.85;;;9.90;99.90;;;;;;5109695;28;20138;-75
2023/10/12 04:28:56;;;;;;;15.55;8.68;;;9.80;99.90;;;;;;5099390;28;20074;-74
2023/10/12 04:31:33;;;;;;;13.25;7.57;;;9.80;99.90;;;;;;5090149;28;20085;-74
2023/10/12 04:34:08;;;;;;;16.75;8.35;;;9.90;99.90;;;;;;5092044;28;20056;-74
2023/10/12 04:36:44;;;;;;;12.10;8.13;;;9.90;99.90;;;;;;5074588;28;20610;-75
2023/10/12 04:39:15;;;;;;;17.98;8.88;;;9.80;99.90;;;;;;5087524;28;20555;-73
2023/10/12 04:41:53;;;;;;;13.60;9.13;;;9.80;99.90;;;;;;5092002;28;20097;-75
2023/10/12 04:44:43;;;;;;;14.52;9.10;;;9.80;99.90;;;;;;5093224;28;20612;-75
2023/10/12 04:47:15;;;;;;;13.98;9.35;;;9.80;99.90;;;;;;5087477;28;20127;-74
2023/10/12 04:49:54;;;;;;;16.10;9.95;;;9.70;99.90;;;;;;5096301;28;20048;-75
2023/10/12 04:52:36;;;;;;;16.45;10.15;;;9.70;99.90;;;;;;5098452;28;20040;-75
2023/10/12 04:55:20;;;;;;;15.98;9.60;;;9.60;99.90;;;;;;5101746;28;20097;-74
2023/10/12 04:58:09;;;;;;;15.38;9.98;;;9.70;99.90;;;;;;5088556;28;20083;-74
2023/10/12 05:00:55;;;;;;;15.93;10.02;;;9.70;99.90;;;;;;5089006;28;20036;-75
2023/10/12 05:03:34;;;;;;;;;;;9.70;99.90;;;;;;5088834;28;20048;-75
2023/10/12 05:06:04;;;;;;;18.55;11.10;;;9.70;99.90;;;;;;5092905;28;19924;-74
2023/10/12 05:08:33;;;;;;;19.88;10.57;;;9.70;99.90;;;;;;5088601;28;20040;-74
2023/10/12 05:11:01;;;;;;;17.33;10.55;;;9.70;99.90;;;;;;5091587;28;20040;-76
2023/10/12 05:13:29;;;;;;;15.95;10.30;;;9.70;99.90;;;;;;5087479;28;20024;-77
2023/10/12 05:16:04;;;;;;;25.60;13.48;;;9.70;99.90;;;;;;5089005;28;20131;-76
2023/10/12 05:18:32;;;;;;;17.58;11.80;;;9.80;99.90;;;;;;5088733;28;20041;-75
2023/10/12 05:21:01;;;;;;;19.40;10.48;;;9.80;99.90;;;;;;5087679;28;20040;-75
2023/10/12 05:23:29;;;;;;;15.90;10.38;;;9.90;99.90;;;;;;5075966;28;20093;-75
2023/10/12 05:26:09;;;;;;;14.48;9.35;;;9.90;99.90;;;;;;5085317;28;20043;-74
2023/10/12 05:28:47;;;;;;;14.32;8.60;;;9.90;99.90;;;;;;5087167;28;20066;-75
2023/10/12 05:31:20;;;;;;;23.75;9.20;;;10.00;99.90;;;;;;5086584;28;20060;-74
2023/10/12 05:36:33;;;;;;;15.73;8.90;;;10.10;99.90;;;;;;5027455;28;20058;-85
2023/10/12 05:39:12;;;;;;;17.65;9.73;;;10.10;99.90;;;;;;5048156;28;20065;-84
2023/10/12 05:41:44;;;;;;;19.63;10.02;;;10.10;99.90;;;;;;5041044;28;20038;-86
2023/10/12 05:44:15;;;;;;;15.15;10.30;;;10.20;99.90;;;;;;5051123;28;20041;-85
2023/10/12 05:46:51;;;;;;;19.42;10.93;;;10.20;99.90;;;;;;5052964;28;20057;-83
2023/10/12 05:49:24;;;;;;;16.98;10.13;;;10.20;99.90;;;;;;5072520;28;20035;-87
2023/10/12 05:51:52;;;;;;;19.00;12.48;;;10.30;99.90;;;;;;5065376;28;20068;-87
2023/10/12 05:54:23;;;;;;;26.63;11.55;;;10.30;99.90;;;;;;5033246;28;20045;-87
2023/10/12 05:56:53;;;;;;;20.80;11.20;;;10.40;99.90;;;;;;5069081;28;20057;-85
2023/10/12 05:59:22;;;;;;;21.38;9.88;;;10.40;99.90;;;;;;5061825;28;20042;-86
2023/10/12 06:01:52;;;;;;;21.42;10.80;;;10.50;99.90;;;;;;5071023;28;20108;-87
2023/10/12 06:04:20;;;;;;;17.95;10.80;;;10.60;99.90;;;;;;5042679;28;20120;-85
2023/10/12 06:06:51;;;;;;;19.15;11.50;;;10.60;99.90;;;;;;5044353;28;20045;-87
2023/10/12 06:09:20;;;;;;;17.85;10.63;;;10.70;99.90;;;;;;5075983;28;20045;-88
2023/10/12 06:11:49;;;;;;;16.35;11.70;;;10.80;99.90;;;;;;5049130;28;20033;-88
2023/10/12 06:14:20;;;;;;;16.35;10.90;;;10.90;99.90;;;;;;5069201;28;20041;-85
2023/10/12 06:16:54;;;;;;;22.65;15.00;;;11.10;99.90;;;;;;5055641;28;20059;-86
2023/10/12 06:19:26;;;;;;;20.10;11.27;;;11.30;99.90;;;;;;5067267;28;20093;-85
2023/10/12 06:21:58;;;;;;;18.05;9.88;;;11.60;99.90;;;;;;5057603;28;20520;-86
2023/10/12 06:24:33;;;;;;;18.98;10.15;;;11.90;99.90;;;;;;5033068;28;20035;-87
2023/10/12 06:27:20;;;;;;;16.40;10.52;;;12.30;99.90;;;;;;5054347;28;20128;-89
2023/10/12 06:29:51;;;;;;;24.20;10.90;;;12.50;99.90;;;;;;5020593;28;20125;-89
2023/10/12 06:32:19;;;;;;;25.02;10.40;;;12.80;1.00;;;;;;5018468;28;20037;-87
2023/10/12 06:35:04;;;;;;;21.70;11.23;;;13.00;1.00;;;;;;5013960;28;20038;-89
2023/10/12 06:40:47;;;;;;;18.80;10.45;;;13.50;1.00;;;;;;5031553;28;20057;-78
2023/10/12 06:46:07;;;;;;;45.60;13.63;;;14.00;1.00;;;;;;5046033;28;20513;-84
2023/10/12 06:49:16;;;;;;;18.60;11.25;;;14.10;99.90;;;;;;5042678;28;20038;-80
2023/10/12 06:51:53;;;;;;;19.98;10.13;;;14.30;1.00;;;;;;5022856;28;20592;-81
2023/10/12 06:54:32;;;;;;;53.22;14.93;;;14.50;99.90;;;;;;5016741;28;20055;-84
2023/10/12 06:59:54;;;;;;;14.85;7.47;;;14.90;1.00;;;;;;5029209;28;20042;-86
2023/10/12 07:02:24;;;;;;;17.42;7.60;;;15.00;99.90;;;;;;5040481;28;20049;-85
2023/10/12 07:04:55;;;;;;;11.77;7.00;;;15.10;99.90;;;;;;5050832;28;20116;-87
2023/10/12 07:07:29;;;;;;;13.20;6.93;;;15.20;1.00;;;;;;5042271;28;20042;-86
2023/10/12 07:10:13;;;;;;;15.05;9.38;;;15.40;1.00;;;;;;5042989;28;20069;-85
2023/10/12 07:12:45;;;;;;;13.10;7.57;;;15.40;1.00;;;;;;5069149;28;20037;-85
2023/10/12 07:15:14;;;;;;;14.00;7.40;;;15.60;1.00;;;;;;5048019;28;20068;-84
2023/10/12 07:17:51;;;;;;;13.23;7.50;;;15.70;99.90;;;;;;5042107;28;20038;-85
2023/10/12 07:20:40;;;;;;;13.68;7.72;;;15.90;99.90;;;;;;5043768;28;20028;-85
2023/10/12 07:23:15;;;;;;;16.75;8.93;;;16.00;52.90;;;;;;5044353;28;20049;-84
2023/10/12 07:25:45;;;;;;;20.23;7.32;;;16.20;1.00;;;;;;5048761;28;20107;-86
2023/10/12 07:28:18;;;;;;;13.90;7.78;;;16.40;1.00;;;;;;5038961;28;20037;-87
2023/10/12 07:33:32;;;;;;;15.90;8.40;;;16.60;99.90;;;;;;5026098;28;20081;-86
2023/10/12 07:36:16;;;;;;;11.43;7.25;;;16.70;2.80;;;;;;5044905;28;20037;-87
2023/10/12 07:39:14;;;;;;;16.05;7.13;;;16.80;1.00;;;;;;5041096;28;20045;-87
2023/10/12 07:41:41;;;;;;;14.52;6.90;;;17.00;1.00;;;;;;5032751;28;20133;-85
2023/10/12 07:44:11;;;;;;;14.38;7.35;;;17.10;1.00;;;;;;5044173;28;20457;-85
2023/10/12 07:46:42;;;;;;;34.28;9.55;;;17.20;1.00;;;;;;5030101;28;20199;-87
2023/10/12 07:49:24;;;;;;;18.08;7.22;;;17.30;1.00;;;;;;5037123;28;20041;-86
2023/10/12 07:51:59;;;;;;;11.38;6.50;;;17.50;1.00;;;;;;5029812;28;20041;-84
2023/10/12 07:57:10;;;;;;;17.10;7.03;;;17.80;99.90;;;;;;5040082;28;20050;-85
2023/10/12 07:59:49;;;;;;;11.57;6.53;;;17.90;99.90;;;;;;5040563;28;20041;-84
2023/10/12 08:02:31;;;;;;;12.15;7.10;;;17.90;99.90;;;;;;5030142;28;20625;-86
2023/10/12 08:04:59;;;;;;;18.45;10.82;;;18.10;99.90;;;;;;5031070;28;20048;-85
2023/10/12 08:07:27;;;;;;;15.90;9.65;;;18.20;99.90;;;;;;5051584;28;20041;-86
2023/10/12 08:10:08;;;;;;;16.27;9.63;;;18.20;99.90;;;;;;5048876;28;20553;-86
2023/10/12 08:12:37;;;;;;;15.77;9.43;;;18.20;51.20;;;;;;5035578;28;20509;-85
2023/10/12 08:15:15;;;;;;;15.55;9.23;;;18.30;1.00;;;;;;5057927;28;20049;-84
2023/10/12 08:17:45;;;;;;;11.63;8.13;;;18.30;1.00;;;;;;5037207;28;20045;-86
2023/10/12 08:23:02;;;;;;;14.55;8.05;;;18.50;1.00;;;;;;5023457;28;20041;-84
2023/10/12 08:25:39;;;;;;;12.50;6.72;;;18.60;1.00;;;;;;5064470;28;20071;-85
2023/10/12 08:28:19;;;;;;;18.10;11.55;;;18.70;1.00;;;;;;5049361;28;20049;-85
2023/10/12 08:30:57;;;;;;;17.92;9.30;;;18.90;1.00;;;;;;5027276;28;20053;-86
2023/10/12 08:36:28;;;;;;;20.40;7.35;;;18.90;1.00;;;;;;5009011;28;20386;-85
2023/10/12 08:38:55;;;;;;;18.40;10.00;;;19.10;1.00;;;;;;5010552;28;20042;-85
2023/10/12 08:41:56;;;;;;;16.90;8.77;;;19.20;1.00;;;;;;5010576;28;20061;-85
2023/10/12 08:44:19;;;;;;;16.33;7.43;;;19.40;1.00;;;;;;5013840;28;20046;-86
2023/10/12 08:46:56;;;;;;;10.25;6.28;;;19.60;1.00;;;;;;5013577;28;20054;-85
2023/10/12 08:49:42;;;;;;;17.27;7.43;;;19.80;1.00;;;;;;5014028;28;20050;-83
2023/10/12 08:52:19;;;;;;;16.40;6.88;;;19.80;1.00;;;;;;5013347;28;20050;-85
2023/10/12 08:54:52;;;;;;;13.25;5.80;;;20.00;1.00;;;;;;5013411;28;20049;-85
2023/10/12 08:57:35;;;;;;;15.25;6.70;;;20.00;1.00;;;;;;5012566;28;20050;-85
2023/10/12 09:00:24;;;;;;;14.20;6.75;;;20.00;1.00;;;;;;5029743;28;20426;-84
2023/10/12 09:02:58;;;;;;;15.30;8.40;;;20.10;1.00;;;;;;5012674;28;20402;-84
2023/10/12 09:05:28;;;;;;;14.85;8.13;;;20.20;1.00;;;;;;5012571;28;20100;-84
2023/10/12 09:08:08;;;;;;;17.10;8.43;;;20.30;1.00;;;;;;5012638;28;20042;-83
2023/10/12 09:10:55;;;;;;;12.38;8.02;;;20.30;1.00;;;;;;5013705;28;20049;-83
2023/10/12 09:13:27;;;;;;;16.65;9.00;;;20.50;1.00;;;;;;5014744;28;20547;-84
2023/10/12 09:15:56;;;;;;;20.40;9.50;;;20.60;1.00;;;;;;5036893;28;20038;-83
2023/10/12 09:18:26;;;;;;;14.60;7.50;;;20.70;1.00;;;;;;5014232;28;20432;-84
2023/10/12 09:21:17;;;;;;;17.48;7.53;;;20.80;1.00;;;;;;5031972;28;20042;-85
2023/10/12 09:24:05;;;;;;;12.13;6.60;;;20.90;1.00;;;;;;5006576;28;20563;-83
2023/10/12 09:30:15;;;;;;;38.83;22.08;;;21.10;1.00;;;;;;4991238;28;20049;-83
2023/10/12 09:37:16;;;;;;;11.95;6.70;;;21.20;1.00;;;;;;5070240;28;20051;-81
2023/10/12 09:43:47;;;;;;;14.02;7.93;;;21.40;1.00;;;;;;5050932;28;20400;-82
2023/10/12 09:46:18;;;;;;;13.57;8.18;;;21.50;1.00;;;;;;5062324;28;20127;-82
2023/10/12 09:48:47;;;;;;;28.63;17.17;;;21.50;1.00;;;;;;5065572;28;20045;-83
2023/10/12 09:51:18;;;;;;;14.85;8.13;;;21.60;1.00;;;;;;5060382;28;20698;-83
2023/10/12 09:53:57;;;;;;;21.35;10.05;;;21.70;96.20;;;;;;5084543;28;20063;-83
2023/10/12 09:56:33;;;;;;;19.52;9.50;;;21.80;1.00;;;;;;5061519;28;20052;-83
2023/10/12 09:59:08;;;;;;;21.98;12.95;;;21.80;1.00;;;;;;5061385;28;20083;-82
2023/10/12 10:01:50;;;;;;;21.63;10.40;;;21.90;78.80;;;;;;5059832;28;20148;-83
2023/10/12 10:04:34;;;;;;;18.55;6.90;;;22.10;1.00;;;;;;5062890;28;20091;-82
2023/10/12 10:07:18;;;;;;;13.73;6.40;;;22.20;1.00;;;;;;5064379;28;20041;-84
2023/10/12 10:09:48;;;;;;;11.75;6.43;;;22.20;1.00;;;;;;5060960;28;20409;-84
2023/10/12 10:12:17;;;;;;;16.10;6.68;;;22.30;1.00;;;;;;5100899;28;20029;-83
2023/10/12 10:14:51;;;;;;;11.65;6.80;;;22.40;1.00;;;;;;5081138;28;20029;-83
2023/10/12 10:17:25;;;;;;;15.98;7.40;;;22.50;1.00;;;;;;5083256;28;20044;-82
2023/10/12 10:20:45;;;;;;;17.40;9.90;;;22.60;1.00;;;;;;5074672;28;20064;-81
2023/10/12 10:23:14;;;;;;;16.40;8.00;;;22.60;1.00;;;;;;5061372;28;20049;-82
2023/10/12 10:26:17;;;;;;;12.48;7.35;;;22.70;1.00;;;;;;5089811;28;20404;-81
2023/10/12 10:28:54;;;;;;;16.83;6.75;;;22.70;1.00;;;;;;5058865;28;20048;-86
2023/10/12 10:31:32;;;;;;;14.90;7.18;;;22.80;1.00;;;;;;5072592;28;20094;-83
2023/10/12 10:34:06;;;;;;;16.92;7.03;;;22.90;26.00;;;;;;5061758;28;20463;-83
2023/10/12 10:36:37;;;;;;;13.95;6.43;;;22.90;16.90;;;;;;5059536;28;20563;-82
2023/10/12 10:39:09;;;;;;;21.75;8.60;;;22.90;84.50;;;;;;5061535;28;20206;-84
2023/10/12 10:41:54;;;;;;;19.25;8.02;;;23.00;74.10;;;;;;5061974;28;20044;-86
2023/10/12 10:44:29;;;;;;;17.00;8.50;;;23.10;97.90;;;;;;5061808;28;20045;-80
2023/10/12 10:47:09;;;;;;;13.07;6.97;;;23.20;92.20;;;;;;5061208;28;20044;-80
2023/10/12 10:50:07;;;;;;;15.55;7.32;;;23.30;92.50;;;;;;5057885;28;20132;-82
2023/10/12 10:52:38;;;;;;;13.60;6.88;;;23.40;92.80;;;;;;5053585;28;20051;-83
2023/10/12 10:55:12;;;;;;;16.73;7.72;;;23.50;96.50;;;;;;5065869;28;20045;-78
2023/10/12 10:57:46;;;;;;;15.95;7.38;;;23.60;97.10;;;;;;5058337;28;20100;-82
2023/10/12 11:00:39;;;;;;;20.90;9.98;;;23.70;99.90;;;;;;5077980;28;20040;-84
2023/10/12 11:03:08;;;;;;;39.25;15.65;;;23.80;98.60;;;;;;5060960;28;20049;-82
2023/10/12 11:05:37;;;;;;;12.95;5.43;;;23.90;99.90;;;;;;5063239;28;20048;-85
2023/10/12 11:08:19;;;;;;;21.63;9.95;;;23.90;99.90;;;;;;5062755;28;20041;-87
2023/10/12 11:13:33;;;;;;;14.55;6.65;;;23.90;99.90;;;;;;5074456;28;20066;-82
2023/10/12 11:16:20;;;;;;;13.00;5.78;;;24.00;99.90;;;;;;5076692;28;20048;-84
2023/10/12 11:18:48;;;;;;;17.70;5.60;;;24.20;99.90;;;;;;5075225;28;20028;-85
2023/10/12 11:21:16;;;;;;;13.48;5.35;;;24.30;99.90;;;;;;5064073;28;20040;-84
2023/10/12 11:23:45;;;;;;;17.33;5.95;;;24.30;99.90;;;;;;5070226;28;20048;-85
2023/10/12 11:26:17;;;;;;;12.30;5.35;;;24.30;99.90;;;;;;5045198;28;20036;-83
2023/10/12 11:29:11;;;;;;;14.68;6.65;;;24.30;99.90;;;;;;5062156;28;20119;-84
2023/10/12 11:31:38;;;;;;;16.05;8.18;;;24.30;99.90;;;;;;5060985;28;20036;-82
2023/10/12 11:34:19;;;;;;;20.52;9.93;;;24.40;99.90;;;;;;5070233;28;20052;-79
2023/10/12 11:37:05;;;;;;;22.83;11.23;;;24.50;99.90;;;;;;5069208;28;20056;-84
2023/10/12 11:39:43;;;;;;;13.43;7.87;;;24.50;99.90;;;;;;5089249;28;20074;-81
2023/10/12 11:42:12;;;;;;;16.23;7.97;;;24.60;99.90;;;;;;5082081;28;20277;-84
2023/10/12 11:44:43;;;;;;;15.18;7.60;;;24.70;99.90;;;;;;5075739;28;20049;-82
2023/10/12 11:47:37;;;;;;;19.33;8.70;;;24.70;99.90;;;;;;5065864;28;20055;-81
2023/10/12 11:50:09;;;;;;;22.10;11.43;;;24.70;99.90;;;;;;5052799;28;20044;-82
2023/10/12 11:52:40;;;;;;;16.27;8.18;;;24.80;99.90;;;;;;5058796;28;20077;-81
2023/10/12 11:55:19;;;;;;;24.83;11.18;;;24.80;99.90;;;;;;5060473;28;20048;-87
2023/10/12 11:57:56;;;;;;;20.15;11.65;;;24.90;99.90;;;;;;5087492;28;20040;-83
2023/10/12 12:06:11;;;;;;;18.63;10.13;;;24.90;99.90;;;;;;5054203;28;20052;-86
2023/10/12 12:08:40;;;;;;;21.23;13.20;;;24.90;99.90;;;;;;5062345;28;20043;-85
2023/10/12 12:11:13;;;;;;;21.65;10.82;;;25.00;99.90;;;;;;5060404;28;20467;-85
2023/10/12 12:13:47;;;;;;;18.00;10.98;;;25.00;99.90;;;;;;5090827;28;20044;-85
2023/10/12 12:16:20;;;;;;;21.42;10.20;;;25.00;99.90;;;;;;5079133;28;20073;-85
2023/10/12 12:18:51;;;;;;;22.27;10.38;;;25.10;99.90;;;;;;5081465;28;20041;-84
2023/10/12 12:21:29;;;;;;;20.45;11.25;;;25.10;99.90;;;;;;5095785;28;20045;-85
2023/10/12 12:24:00;;;;;;;24.85;12.45;;;25.10;99.90;;;;;;5059940;28;20159;-85
2023/10/12 12:26:33;;;;;;;22.42;9.80;;;25.20;99.90;;;;;;5078318;28;20044;-85
2023/10/12 12:29:05;;;;;;;15.70;8.10;;;25.10;99.90;;;;;;5062702;28;20317;-86
2023/10/12 12:31:33;;;;;;;15.07;8.32;;;25.20;99.90;;;;;;5059538;28;20045;-82
2023/10/12 12:34:06;;;;;;;13.23;6.22;;;25.20;99.90;;;;;;5089148;28;20174;-82
2023/10/12 12:36:34;;;;;;;60.67;42.97;;;25.30;99.90;;;;;;5068915;28;20055;-82
2023/10/12 12:39:09;;;;;;;421.73;343.00;;;25.30;99.90;;;;;;5062564;28;20045;-83
2023/10/12 12:41:38;;;;;;;27.52;18.25;;;25.20;99.90;;;;;;5063521;28;20036;-80
2023/10/12 12:44:16;;;;;;;207.52;163.85;;;25.20;99.90;;;;;;5085977;28;20492;-80
2023/10/12 12:46:44;;;;;;;47.15;33.38;;;25.20;99.90;;;;;;5063509;28;20053;-83
2023/10/12 12:49:15;;;;;;;136.00;104.72;;;25.30;99.90;;;;;;5062978;28;20541;-81
2023/10/12 12:51:46;;;;;;;12.77;6.45;;;25.30;99.90;;;;;;5058397;28;20514;-83
2023/10/12 12:54:16;;;;;;;77.75;57.30;;;25.30;99.90;;;;;;5064022;28;20056;-87
2023/10/12 12:56:46;;;;;;;22.73;12.27;;;25.30;99.90;;;;;;5062812;28;20033;-82
2023/10/12 12:59:17;;;;;;;44.53;30.00;;;25.50;99.90;;;;;;5065657;28;20097;-83
2023/10/12 13:02:07;;;;;;;42.92;27.02;;;25.50;99.90;;;;;;5071890;28;20055;-85
2023/10/12 13:04:40;;;;;;;11.40;5.18;;;25.60;99.70;;;;;;5077887;28;20045;-86
2023/10/12 13:07:12;;;;;;;15.10;6.60;;;25.60;97.10;;;;;;5064501;28;20075;-84
2023/10/12 13:09:41;;;;;;;9.25;3.78;;;25.50;97.20;;;;;;5061245;28;20128;-82
2023/10/12 13:12:10;;;;;;;13.98;4.68;;;25.50;95.50;;;;;;5061861;28;20039;-83
2023/10/12 13:14:42;;;;;;;10.35;3.30;;;25.50;94.30;;;;;;5062052;28;20147;-82
2023/10/12 13:17:11;;;;;;;14.88;6.22;;;25.60;93.10;;;;;;5059445;28;20116;-82
2023/10/12 13:19:44;;;;;;;10.75;3.60;;;25.70;92.90;;;;;;5061596;28;20119;-82
2023/10/12 13:22:11;;;;;;;11.02;3.80;;;25.60;92.70;;;;;;5064339;28;20045;-82
2023/10/12 13:24:39;;;;;;;10.65;3.25;;;25.70;90.50;;;;;;5080161;28;20079;-82
2023/10/12 13:27:27;;;;;;;8.95;3.35;;;25.70;90.20;;;;;;5064012;28;20057;-82
2023/10/12 13:29:57;;;;;;;10.85;3.22;;;25.70;90.00;;;;;;5060954;28;20499;-82
2023/10/12 13:32:26;;;;;;;9.55;3.03;;;25.60;86.80;;;;;;5065493;28;20155;-83
2023/10/12 13:34:57;;;;;;;13.18;5.28;;;25.60;83.90;;;;;;5060447;28;20102;-83
2023/10/12 13:37:30;;;;;;;13.65;4.80;;;25.70;86.00;;;;;;5061752;28;20045;-83
2023/10/12 13:39:58;;;;;;;10.23;4.18;;;25.70;87.10;;;;;;5061143;28;20403;-85
2023/10/12 13:42:28;;;;;;;11.10;4.72;;;25.70;87.20;;;;;;5062801;28;20047;-80
2023/10/12 13:44:56;;;;;;;13.48;4.70;;;25.70;89.00;;;;;;5060689;28;20049;-83
2023/10/12 13:47:25;;;;;;;12.30;5.18;;;25.70;90.20;;;;;;5064197;28;20099;-82
2023/10/12 13:49:54;;;;;;;11.90;5.43;;;25.70;90.70;;;;;;5062301;28;20040;-84
2023/10/12 13:52:22;;;;;;;10.05;5.05;;;25.70;91.10;;;;;;5060297;28;20053;-82
2023/10/12 13:54:52;;;;;;;10.90;6.00;;;25.70;91.10;;;;;;5084521;28;20072;-83
2023/10/12 13:57:19;;;;;;;13.23;6.05;;;25.70;91.50;;;;;;5060151;28;20043;-84
2023/10/12 13:59:48;;;;;;;12.30;6.45;;;25.70;91.40;;;;;;5058369;28;20037;-83
2023/10/12 14:02:16;;;;;;;12.30;5.78;;;25.60;91.00;;;;;;5063133;28;20048;-83